sensor_id;sensor_type;location;lat;lon;timestamp;pressure;altitude;pressure_sealevel;temperature;humidity
4586;BME280;2305;50.118;8.952;2022-11-15T00:02:22;100266.63;;;11.59;100.00
4586;BME280;2305;50.118;8.952;2022-11-15T00:05:09;100269.41;;;11.58;100.00
4586;BME280;2305;50.118;8.952;2022-11-15T00:07:57;100267.13;;;11.53;100.00
4586;BME280;2305;50.118;8.952;2022-11-15T00:10:54;100261.56;;;11.47;100.00
4586;BME280;2305;50.118;8.952;2022-11-15T00:13:41;100258.06;;;11.46;100.00
4586;BME280;2305;50.118;8.952;2022-11-15T00:16:29;100258.47;;;11.42;100.00
4586;BME280;2305;50.118;8.952;2022-11-15T00:19:16;100268.47;;;11.38;100.00
4586;BME280;2305;50.118;8.952;2022-11-15T00:22:03;100261.50;;;11.37;100.00
4586;BME280;2305;50.118;8.952;2022-11-15T00:24:50;100256.00;;;11.40;100.00
4586;BME280;2305;50.118;8.952;2022-11-15T00:27:36;100248.78;;;11.42;100.00
4586;BME280;2305;50.118;8.952;2022-11-15T00:30:23;100243.75;;;11.39;100.00
4586;BME280;2305;50.118;8.952;2022-11-15T00:33:11;100253.72;;;11.36;100.00
4586;BME280;2305;50.118;8.952;2022-11-15T00:36:02;100254.84;;;11.33;100.00
4586;BME280;2305;50.118;8.952;2022-11-15T00:38:49;100258.69;;;11.29;100.00
4586;BME280;2305;50.118;8.952;2022-11-15T00:41:36;100258.00;;;11.27;100.00
4586;BME280;2305;50.118;8.952;2022-11-15T00:44:23;100257.16;;;11.27;100.00
4586;BME280;2305;50.118;8.952;2022-11-15T00:47:09;100252.16;;;11.24;100.00
4586;BME280;2305;50.118;8.952;2022-11-15T00:49:57;100254.63;;;11.25;100.00
4586;BME280;2305;50.118;8.952;2022-11-15T00:52:44;100260.81;;;11.35;100.00
4586;BME280;2305;50.118;8.952;2022-11-15T00:55:31;100256.25;;;11.37;100.00
4586;BME280;2305;50.118;8.952;2022-11-15T00:58:18;100257.38;;;11.44;100.00
4586;BME280;2305;50.118;8.952;2022-11-15T01:01:07;100247.28;;;11.49;100.00
4586;BME280;2305;50.118;8.952;2022-11-15T01:03:53;100245.78;;;11.56;100.00
4586;BME280;2305;50.118;8.952;2022-11-15T01:06:47;100244.72;;;11.59;100.00
4586;BME280;2305;50.118;8.952;2022-11-15T01:09:33;100244.09;;;11.55;100.00
4586;BME280;2305;50.118;8.952;2022-11-15T01:12:20;100241.09;;;11.60;100.00
4586;BME280;2305;50.118;8.952;2022-11-15T01:15:08;100235.66;;;11.61;100.00
4586;BME280;2305;50.118;8.952;2022-11-15T01:17:54;100244.56;;;11.60;100.00
4586;BME280;2305;50.118;8.952;2022-11-15T01:20:41;100234.00;;;11.60;100.00
4586;BME280;2305;50.118;8.952;2022-11-15T01:23:30;100235.66;;;11.61;100.00
4586;BME280;2305;50.118;8.952;2022-11-15T01:26:17;100234.00;;;11.60;100.00
4586;BME280;2305;50.118;8.952;2022-11-15T01:29:04;100235.94;;;11.58;100.00
4586;BME280;2305;50.118;8.952;2022-11-15T01:31:52;100226.34;;;11.57;100.00
4586;BME280;2305;50.118;8.952;2022-11-15T01:34:39;100228.72;;;11.60;100.00
4586;BME280;2305;50.118;8.952;2022-11-15T01:37:25;100224.28;;;11.61;100.00
4586;BME280;2305;50.118;8.952;2022-11-15T01:40:14;100226.81;;;11.62;100.00
4586;BME280;2305;50.118;8.952;2022-11-15T01:43:20;100211.53;;;11.66;100.00
4586;BME280;2305;50.118;8.952;2022-11-15T01:46:19;100224.97;;;11.63;100.00
4586;BME280;2305;50.118;8.952;2022-11-15T01:49:12;100219.25;;;11.58;100.00
4586;BME280;2305;50.118;8.952;2022-11-15T01:52:02;100226.09;;;11.60;100.00
4586;BME280;2305;50.118;8.952;2022-11-15T01:54:53;100210.56;;;11.67;100.00
4586;BME280;2305;50.118;8.952;2022-11-15T01:57:45;100204.72;;;11.63;100.00
4586;BME280;2305;50.118;8.952;2022-11-15T02:00:33;100202.78;;;11.65;100.00
4586;BME280;2305;50.118;8.952;2022-11-15T02:03:22;100205.97;;;11.69;100.00
4586;BME280;2305;50.118;8.952;2022-11-15T02:06:12;100196.66;;;11.65;100.00
4586;BME280;2305;50.118;8.952;2022-11-15T02:09:00;100192.91;;;11.67;100.00
4586;BME280;2305;50.118;8.952;2022-11-15T02:11:50;100188.03;;;11.63;100.00
4586;BME280;2305;50.118;8.952;2022-11-15T02:14:40;100185.56;;;11.71;100.00
4586;BME280;2305;50.118;8.952;2022-11-15T02:17:46;100187.91;;;11.64;100.00
4586;BME280;2305;50.118;8.952;2022-11-15T02:20:47;100183.59;;;11.63;100.00
4586;BME280;2305;50.118;8.952;2022-11-15T02:23:57;100183.84;;;11.60;100.00
4586;BME280;2305;50.118;8.952;2022-11-15T02:27:19;100178.84;;;11.57;100.00
4586;BME280;2305;50.118;8.952;2022-11-15T02:30:32;100169.97;;;11.58;100.00
4586;BME280;2305;50.118;8.952;2022-11-15T02:33:28;100172.00;;;11.55;100.00
4586;BME280;2305;50.118;8.952;2022-11-15T02:36:27;100164.41;;;11.61;100.00
4586;BME280;2305;50.118;8.952;2022-11-15T02:39:20;100163.31;;;11.64;100.00
4586;BME280;2305;50.118;8.952;2022-11-15T02:42:14;100154.25;;;11.57;100.00
4586;BME280;2305;50.118;8.952;2022-11-15T02:45:20;100158.13;;;11.53;100.00
4586;BME280;2305;50.118;8.952;2022-11-15T02:48:10;100152.44;;;11.57;100.00
4586;BME280;2305;50.118;8.952;2022-11-15T02:50:58;100148.97;;;11.57;100.00
4586;BME280;2305;50.118;8.952;2022-11-15T02:53:49;100150.78;;;11.56;100.00
4586;BME280;2305;50.118;8.952;2022-11-15T02:56:36;100142.16;;;11.54;100.00
4586;BME280;2305;50.118;8.952;2022-11-15T02:59:33;100136.88;;;11.54;100.00
4586;BME280;2305;50.118;8.952;2022-11-15T03:02:40;100134.78;;;11.48;100.00
4586;BME280;2305;50.118;8.952;2022-11-15T03:05:35;100139.63;;;11.43;100.00
4586;BME280;2305;50.118;8.952;2022-11-15T03:08:29;100122.84;;;11.44;100.00
4586;BME280;2305;50.118;8.952;2022-11-15T03:11:19;100127.00;;;11.47;100.00
4586;BME280;2305;50.118;8.952;2022-11-15T03:14:17;100130.50;;;11.47;100.00
4586;BME280;2305;50.118;8.952;2022-11-15T03:17:12;100132.94;;;11.39;100.00
4586;BME280;2305;50.118;8.952;2022-11-15T03:20:05;100126.81;;;11.29;100.00
4586;BME280;2305;50.118;8.952;2022-11-15T03:22:56;100120.13;;;11.25;100.00
4586;BME280;2305;50.118;8.952;2022-11-15T03:25:47;100123.16;;;11.21;100.00
4586;BME280;2305;50.118;8.952;2022-11-15T03:28:37;100118.31;;;11.16;100.00
4586;BME280;2305;50.118;8.952;2022-11-15T03:31:28;100126.75;;;11.10;100.00
4586;BME280;2305;50.118;8.952;2022-11-15T03:34:39;100123.69;;;11.05;100.00
4586;BME280;2305;50.118;8.952;2022-11-15T03:37:33;100125.88;;;11.00;100.00
4586;BME280;2305;50.118;8.952;2022-11-15T03:40:25;100131.69;;;10.94;100.00
4586;BME280;2305;50.118;8.952;2022-11-15T03:43:22;100131.22;;;10.89;100.00
4586;BME280;2305;50.118;8.952;2022-11-15T03:46:14;100135.13;;;10.85;100.00
4586;BME280;2305;50.118;8.952;2022-11-15T03:49:08;100139.41;;;10.86;100.00
4586;BME280;2305;50.118;8.952;2022-11-15T03:51:56;100135.00;;;10.87;100.00
4586;BME280;2305;50.118;8.952;2022-11-15T03:54:48;100127.22;;;10.85;100.00
4586;BME280;2305;50.118;8.952;2022-11-15T03:57:36;100122.19;;;10.82;100.00
4586;BME280;2305;50.118;8.952;2022-11-15T04:00:23;100134.53;;;10.82;100.00
4586;BME280;2305;50.118;8.952;2022-11-15T04:03:09;100134.53;;;10.82;100.00
4586;BME280;2305;50.118;8.952;2022-11-15T04:05:56;100136.31;;;10.81;100.00
4586;BME280;2305;50.118;8.952;2022-11-15T04:08:43;100140.63;;;10.82;100.00
4586;BME280;2305;50.118;8.952;2022-11-15T04:11:30;100138.72;;;10.84;100.00
4586;BME280;2305;50.118;8.952;2022-11-15T04:14:18;100137.06;;;10.83;100.00
4586;BME280;2305;50.118;8.952;2022-11-15T04:17:04;100136.09;;;10.84;100.00
4586;BME280;2305;50.118;8.952;2022-11-15T04:19:51;100131.50;;;10.86;100.00
4586;BME280;2305;50.118;8.952;2022-11-15T04:22:57;100132.06;;;10.90;100.00
4586;BME280;2305;50.118;8.952;2022-11-15T04:26:03;100133.47;;;10.94;100.00
4586;BME280;2305;50.118;8.952;2022-11-15T04:28:50;100131.16;;;11.00;100.00
4586;BME280;2305;50.118;8.952;2022-11-15T04:31:56;100135.91;;;11.06;100.00
4586;BME280;2305;50.118;8.952;2022-11-15T04:34:42;100130.34;;;11.09;100.00
4586;BME280;2305;50.118;8.952;2022-11-15T04:37:29;100131.31;;;11.08;100.00
4586;BME280;2305;50.118;8.952;2022-11-15T04:40:16;100119.69;;;11.11;100.00
4586;BME280;2305;50.118;8.952;2022-11-15T04:43:03;100118.84;;;11.10;100.00
4586;BME280;2305;50.118;8.952;2022-11-15T04:45:53;100121.06;;;11.15;100.00
4586;BME280;2305;50.118;8.952;2022-11-15T04:48:41;100109.00;;;11.12;100.00
4586;BME280;2305;50.118;8.952;2022-11-15T04:51:28;100106.38;;;11.12;100.00
4586;BME280;2305;50.118;8.952;2022-11-15T04:54:15;100114.00;;;11.15;100.00
4586;BME280;2305;50.118;8.952;2022-11-15T04:57:02;100116.34;;;11.18;100.00
4586;BME280;2305;50.118;8.952;2022-11-15T04:59:49;100116.50;;;11.17;100.00
4586;BME280;2305;50.118;8.952;2022-11-15T05:02:36;100112.63;;;11.21;100.00
4586;BME280;2305;50.118;8.952;2022-11-15T05:05:40;100110.00;;;11.21;100.00
4586;BME280;2305;50.118;8.952;2022-11-15T05:08:27;100108.31;;;11.20;100.00
4586;BME280;2305;50.118;8.952;2022-11-15T05:11:13;100115.25;;;11.21;100.00
4586;BME280;2305;50.118;8.952;2022-11-15T05:14:00;100101.09;;;11.22;100.00
4586;BME280;2305;50.118;8.952;2022-11-15T05:16:47;100112.50;;;11.22;100.00
4586;BME280;2305;50.118;8.952;2022-11-15T05:19:34;100113.47;;;11.21;100.00
4586;BME280;2305;50.118;8.952;2022-11-15T05:22:22;100107.22;;;11.22;100.00
4586;BME280;2305;50.118;8.952;2022-11-15T05:25:09;100113.47;;;11.21;100.00
4586;BME280;2305;50.118;8.952;2022-11-15T05:27:55;100113.16;;;11.15;100.00
4586;BME280;2305;50.118;8.952;2022-11-15T05:30:42;100107.72;;;11.07;100.00
4586;BME280;2305;50.118;8.952;2022-11-15T05:33:30;100113.00;;;11.07;100.00
4586;BME280;2305;50.118;8.952;2022-11-15T05:36:26;100111.91;;;11.09;100.00
4586;BME280;2305;50.118;8.952;2022-11-15T05:39:19;100112.03;;;11.08;100.00
4586;BME280;2305;50.118;8.952;2022-11-15T05:42:10;100107.59;;;11.08;100.00
4586;BME280;2305;50.118;8.952;2022-11-15T05:44:59;100099.00;;;11.06;100.00
4586;BME280;2305;50.118;8.952;2022-11-15T05:47:49;100084.38;;;11.02;100.00
4586;BME280;2305;50.118;8.952;2022-11-15T05:50:38;100086.47;;;10.99;100.00
4586;BME280;2305;50.118;8.952;2022-11-15T05:53:27;100084.50;;;11.01;100.00
4586;BME280;2305;50.118;8.952;2022-11-15T05:56:16;100086.47;;;10.99;100.00
4586;BME280;2305;50.118;8.952;2022-11-15T05:59:03;100093.41;;;11.00;100.00
4586;BME280;2305;50.118;8.952;2022-11-15T06:01:50;100089.66;;;11.02;100.00
4586;BME280;2305;50.118;8.952;2022-11-15T06:04:40;100091.03;;;10.97;100.00
4586;BME280;2305;50.118;8.952;2022-11-15T06:07:28;100084.09;;;10.96;100.00
4586;BME280;2305;50.118;8.952;2022-11-15T06:10:16;100083.53;;;10.92;100.00
4586;BME280;2305;50.118;8.952;2022-11-15T06:13:04;100084.50;;;10.91;100.00
4586;BME280;2305;50.118;8.952;2022-11-15T06:15:55;100086.28;;;10.91;100.00
4586;BME280;2305;50.118;8.952;2022-11-15T06:18:41;100084.50;;;10.91;100.00
4586;BME280;2305;50.118;8.952;2022-11-15T06:21:31;100087.00;;;10.93;100.00
4586;BME280;2305;50.118;8.952;2022-11-15T06:24:17;100086.88;;;10.94;100.00
4586;BME280;2305;50.118;8.952;2022-11-15T06:27:04;100085.19;;;10.93;100.00
4586;BME280;2305;50.118;8.952;2022-11-15T06:29:52;100088.53;;;10.95;100.00
4586;BME280;2305;50.118;8.952;2022-11-15T06:32:38;100090.47;;;10.93;100.00
4586;BME280;2305;50.118;8.952;2022-11-15T06:35:26;100090.19;;;10.96;100.00
4586;BME280;2305;50.118;8.952;2022-11-15T06:38:12;100096.84;;;10.91;100.00
4586;BME280;2305;50.118;8.952;2022-11-15T06:41:03;100092.25;;;10.93;100.00
4586;BME280;2305;50.118;8.952;2022-11-15T06:43:50;100096.72;;;10.92;100.00
4586;BME280;2305;50.118;8.952;2022-11-15T06:46:38;100105.72;;;10.90;100.00
4586;BME280;2305;50.118;8.952;2022-11-15T06:49:25;100098.38;;;10.93;100.00
4586;BME280;2305;50.118;8.952;2022-11-15T06:52:12;100098.38;;;10.93;100.00
4586;BME280;2305;50.118;8.952;2022-11-15T06:54:59;100099.19;;;10.94;100.00
4586;BME280;2305;50.118;8.952;2022-11-15T06:57:47;100105.03;;;10.97;100.00
4586;BME280;2305;50.118;8.952;2022-11-15T07:00:34;100101.47;;;10.98;100.00
4586;BME280;2305;50.118;8.952;2022-11-15T07:03:23;100106.59;;;11.00;100.00
4586;BME280;2305;50.118;8.952;2022-11-15T07:06:10;100101.63;;;11.06;100.00
4586;BME280;2305;50.118;8.952;2022-11-15T07:08:56;100098.72;;;11.09;100.00
4586;BME280;2305;50.118;8.952;2022-11-15T07:11:43;100102.59;;;11.15;100.00
4586;BME280;2305;50.118;8.952;2022-11-15T07:14:30;100098.75;;;11.19;100.00
4586;BME280;2305;50.118;8.952;2022-11-15T07:17:16;100097.53;;;11.23;100.00
4586;BME280;2305;50.118;8.952;2022-11-15T07:20:05;100098.78;;;11.28;100.00
4586;BME280;2305;50.118;8.952;2022-11-15T07:23:00;100094.88;;;11.32;100.00
4586;BME280;2305;50.118;8.952;2022-11-15T07:25:48;100094.63;;;11.35;100.00
4586;BME280;2305;50.118;8.952;2022-11-15T07:28:36;100098.53;;;11.41;100.00
4586;BME280;2305;50.118;8.952;2022-11-15T07:31:24;100104.09;;;11.47;100.00
4586;BME280;2305;50.118;8.952;2022-11-15T07:34:11;100105.06;;;11.46;100.00
4586;BME280;2305;50.118;8.952;2022-11-15T07:36:59;100107.28;;;11.41;100.00
4586;BME280;2305;50.118;8.952;2022-11-15T07:39:46;100105.47;;;11.42;100.00
4586;BME280;2305;50.118;8.952;2022-11-15T07:42:33;100101.84;;;11.43;100.00
4586;BME280;2305;50.118;8.952;2022-11-15T07:45:40;100108.13;;;11.51;100.00
4586;BME280;2305;50.118;8.952;2022-11-15T07:48:28;100099.41;;;11.60;100.00
4586;BME280;2305;50.118;8.952;2022-11-15T07:51:28;100110.41;;;11.75;100.00
4586;BME280;2305;50.118;8.952;2022-11-15T07:54:16;100108.34;;;11.78;100.00
4586;BME280;2305;50.118;8.952;2022-11-15T07:57:03;100106.25;;;11.82;100.00
4586;BME280;2305;50.118;8.952;2022-11-15T07:59:53;100107.50;;;11.87;100.00
4586;BME280;2305;50.118;8.952;2022-11-15T08:02:40;100104.19;;;11.95;100.00
4586;BME280;2305;50.118;8.952;2022-11-15T08:05:27;100103.47;;;12.02;100.00
4586;BME280;2305;50.118;8.952;2022-11-15T08:08:13;100093.88;;;12.11;100.00
4586;BME280;2305;50.118;8.952;2022-11-15T08:11:02;100093.75;;;12.12;100.00
4586;BME280;2305;50.118;8.952;2022-11-15T08:13:49;100095.00;;;12.18;100.00
4586;BME280;2305;50.118;8.952;2022-11-15T08:16:35;100089.97;;;12.24;100.00
4586;BME280;2305;50.118;8.952;2022-11-15T08:19:22;100094.56;;;12.32;100.00
4586;BME280;2305;50.118;8.952;2022-11-15T08:22:09;100098.97;;;12.41;100.00
4586;BME280;2305;50.118;8.952;2022-11-15T08:24:56;100093.56;;;12.42;100.00
4586;BME280;2305;50.118;8.952;2022-11-15T08:27:44;100090.94;;;12.42;100.00
4586;BME280;2305;50.118;8.952;2022-11-15T08:30:35;100089.41;;;12.40;100.00
4586;BME280;2305;50.118;8.952;2022-11-15T08:33:23;100090.38;;;12.39;100.00
4586;BME280;2305;50.118;8.952;2022-11-15T08:36:13;100082.16;;;12.42;100.00
4586;BME280;2305;50.118;8.952;2022-11-15T08:39:00;100084.41;;;12.37;100.00
4586;BME280;2305;50.118;8.952;2022-11-15T08:41:47;100085.22;;;12.37;100.00
4586;BME280;2305;50.118;8.952;2022-11-15T08:44:36;100084.25;;;12.38;100.00
4586;BME280;2305;50.118;8.952;2022-11-15T08:47:23;100077.97;;;12.39;100.00
4586;BME280;2305;50.118;8.952;2022-11-15T08:50:10;100083.81;;;12.43;100.00
4586;BME280;2305;50.118;8.952;2022-11-15T08:52:57;100078.53;;;12.43;100.00
4586;BME280;2305;50.118;8.952;2022-11-15T08:55:44;100074.94;;;12.44;100.00
4586;BME280;2305;50.118;8.952;2022-11-15T08:58:34;100077.72;;;12.42;100.00
4586;BME280;2305;50.118;8.952;2022-11-15T09:01:22;100078.81;;;12.40;100.00
4586;BME280;2305;50.118;8.952;2022-11-15T09:04:09;100074.22;;;12.42;100.00
4586;BME280;2305;50.118;8.952;2022-11-15T09:06:56;100073.25;;;12.43;100.00
4586;BME280;2305;50.118;8.952;2022-11-15T09:09:43;100077.72;;;12.42;100.00
4586;BME280;2305;50.118;8.952;2022-11-15T09:12:29;100067.13;;;12.52;100.00
4586;BME280;2305;50.118;8.952;2022-11-15T09:15:16;100072.25;;;12.53;100.00
4586;BME280;2305;50.118;8.952;2022-11-15T09:18:07;100065.16;;;12.54;100.00
4586;BME280;2305;50.118;8.952;2022-11-15T09:20:55;100064.59;;;12.60;100.00
4586;BME280;2305;50.118;8.952;2022-11-15T09:23:43;100059.97;;;12.62;100.00
4586;BME280;2305;50.118;8.952;2022-11-15T09:26:29;100052.59;;;12.65;100.00
4586;BME280;2305;50.118;8.952;2022-11-15T09:29:16;100058.44;;;12.69;100.00
4586;BME280;2305;50.118;8.952;2022-11-15T09:32:03;100058.44;;;12.69;100.00
4586;BME280;2305;50.118;8.952;2022-11-15T09:34:51;100057.75;;;12.67;100.00
4586;BME280;2305;50.118;8.952;2022-11-15T09:37:38;100052.47;;;12.67;100.00
4586;BME280;2305;50.118;8.952;2022-11-15T09:40:25;100048.25;;;12.74;100.00
4586;BME280;2305;50.118;8.952;2022-11-15T09:43:27;100042.78;;;12.85;100.00
4586;BME280;2305;50.118;8.952;2022-11-15T09:46:22;100053.75;;;12.90;100.00
4586;BME280;2305;50.118;8.952;2022-11-15T09:49:15;100053.63;;;12.91;100.00
4586;BME280;2305;50.118;8.952;2022-11-15T09:52:12;100057.78;;;12.94;100.00
4586;BME280;2305;50.118;8.952;2022-11-15T09:54:46;100051.53;;;12.95;100.00
4586;BME280;2305;50.118;8.952;2022-11-15T09:57:24;100046.25;;;12.95;100.00
4586;BME280;2305;50.118;8.952;2022-11-15T10:00:04;100042.59;;;13.05;100.00
4586;BME280;2305;50.118;8.952;2022-11-15T10:03:06;100039.19;;;13.13;100.00
4586;BME280;2305;50.118;8.952;2022-11-15T10:05:42;100040.13;;;13.21;100.00
4586;BME280;2305;50.118;8.952;2022-11-15T10:08:40;100035.06;;;13.28;100.00
4586;BME280;2305;50.118;8.952;2022-11-15T10:11:15;100034.25;;;13.27;100.00
4586;BME280;2305;50.118;8.952;2022-11-15T10:14:11;100028.63;;;13.30;100.00
4586;BME280;2305;50.118;8.952;2022-11-15T10:19:43;100029.47;;;13.31;100.00
4586;BME280;2305;50.118;8.952;2022-11-15T10:22:21;100030.16;;;13.33;100.00
4586;BME280;2305;50.118;8.952;2022-11-15T10:25:06;100012.75;;;13.30;100.00
4586;BME280;2305;50.118;8.952;2022-11-15T10:27:39;100003.41;;;13.36;100.00
4586;BME280;2305;50.118;8.952;2022-11-15T10:30:11;100008.47;;;13.47;100.00
4586;BME280;2305;50.118;8.952;2022-11-15T10:32:41;100004.91;;;13.56;100.00
4586;BME280;2305;50.118;8.952;2022-11-15T10:35:17;100018.59;;;13.68;100.00
4586;BME280;2305;50.118;8.952;2022-11-15T10:37:47;100003.00;;;13.83;100.00
4586;BME280;2305;50.118;8.952;2022-11-15T10:40:20;100005.19;;;13.87;100.00
4586;BME280;2305;50.118;8.952;2022-11-15T10:42:49;100004.59;;;13.93;100.00
4586;BME280;2305;50.118;8.952;2022-11-15T10:45:32;100000.88;;;13.86;100.00
4586;BME280;2305;50.118;8.952;2022-11-15T10:48:20;99992.94;;;13.86;100.00
4586;BME280;2305;50.118;8.952;2022-11-15T10:50:50;99993.94;;;13.85;100.00
4586;BME280;2305;50.118;8.952;2022-11-15T10:53:31;99988.31;;;13.88;100.00
4586;BME280;2305;50.118;8.952;2022-11-15T10:56:07;99991.09;;;13.87;100.00
4586;BME280;2305;50.118;8.952;2022-11-15T10:58:39;99983.47;;;13.84;100.00
4586;BME280;2305;50.118;8.952;2022-11-15T11:01:14;99986.66;;;13.87;100.00
4586;BME280;2305;50.118;8.952;2022-11-15T11:03:45;99978.09;;;13.93;100.00
4586;BME280;2305;50.118;8.952;2022-11-15T11:06:15;99975.97;;;13.97;100.00
4586;BME280;2305;50.118;8.952;2022-11-15T11:08:55;99975.28;;;13.95;100.00
4586;BME280;2305;50.118;8.952;2022-11-15T11:11:45;99963.19;;;13.92;100.00
4586;BME280;2305;50.118;8.952;2022-11-15T11:14:22;99964.38;;;13.98;100.00
4586;BME280;2305;50.118;8.952;2022-11-15T11:16:54;99965.53;;;13.95;100.00
4586;BME280;2305;50.118;8.952;2022-11-15T11:19:39;99960.38;;;13.94;100.00
4586;BME280;2305;50.118;8.952;2022-11-15T11:22:19;99952.75;;;13.91;100.00
4586;BME280;2305;50.118;8.952;2022-11-15T11:25:01;99949.06;;;13.84;100.00
4586;BME280;2305;50.118;8.952;2022-11-15T11:27:43;99952.75;;;13.91;100.00
4586;BME280;2305;50.118;8.952;2022-11-15T11:30:17;99949.47;;;13.97;100.00
4586;BME280;2305;50.118;8.952;2022-11-15T11:33:01;99946.56;;;14.08;100.00
4586;BME280;2305;50.118;8.952;2022-11-15T11:35:40;99940.25;;;14.09;100.00
4586;BME280;2305;50.118;8.952;2022-11-15T11:38:24;99936.47;;;14.11;100.00
4586;BME280;2305;50.118;8.952;2022-11-15T11:41:04;99933.09;;;14.19;100.00
4586;BME280;2305;50.118;8.952;2022-11-15T11:43:43;99932.28;;;14.26;100.00
4586;BME280;2305;50.118;8.952;2022-11-15T11:46:30;99923.91;;;14.39;100.00
4586;BME280;2305;50.118;8.952;2022-11-15T11:49:08;99915.50;;;14.43;100.00
4586;BME280;2305;50.118;8.952;2022-11-15T11:51:40;99915.63;;;14.42;100.00
4586;BME280;2305;50.118;8.952;2022-11-15T11:54:12;99904.69;;;14.45;100.00
4586;BME280;2305;50.118;8.952;2022-11-15T11:56:44;99902.78;;;14.55;100.00
4586;BME280;2305;50.118;8.952;2022-11-15T11:59:20;99905.09;;;14.58;100.00
4586;BME280;2305;50.118;8.952;2022-11-15T12:01:51;99895.34;;;14.66;100.00
4586;BME280;2305;50.118;8.952;2022-11-15T12:04:23;99892.34;;;14.69;100.00
4586;BME280;2305;50.118;8.952;2022-11-15T12:06:56;99884.75;;;14.66;100.00
4586;BME280;2305;50.118;8.952;2022-11-15T12:09:30;99876.94;;;14.73;100.00
4586;BME280;2305;50.118;8.952;2022-11-15T12:12:05;99878.66;;;14.82;100.00
4586;BME280;2305;50.118;8.952;2022-11-15T12:14:41;99881.81;;;14.85;100.00
4586;BME280;2305;50.118;8.952;2022-11-15T12:17:10;99871.38;;;14.92;100.00
4586;BME280;2305;50.118;8.952;2022-11-15T12:19:39;99865.56;;;14.96;100.00
4586;BME280;2305;50.118;8.952;2022-11-15T12:22:13;99854.81;;;15.06;100.00
4586;BME280;2305;50.118;8.952;2022-11-15T12:24:50;99863.91;;;15.11;100.00
4586;BME280;2305;50.118;8.952;2022-11-15T12:27:26;99862.44;;;15.17;100.00
4586;BME280;2305;50.118;8.952;2022-11-15T12:30:03;99856.81;;;15.20;100.00
4586;BME280;2305;50.118;8.952;2022-11-15T12:32:37;99854.78;;;15.30;100.00
4586;BME280;2305;50.118;8.952;2022-11-15T12:35:21;99851.69;;;15.34;100.00
4586;BME280;2305;50.118;8.952;2022-11-15T12:37:52;99832.59;;;15.47;100.00
4586;BME280;2305;50.118;8.952;2022-11-15T12:40:29;99829.94;;;15.47;100.00
4586;BME280;2305;50.118;8.952;2022-11-15T12:43:01;99831.59;;;15.48;100.00
4586;BME280;2305;50.118;8.952;2022-11-15T12:45:32;99832.09;;;15.51;100.00
4586;BME280;2305;50.118;8.952;2022-11-15T12:51:02;99810.13;;;15.73;100.00
4586;BME280;2305;50.118;8.952;2022-11-15T12:53:32;99824.03;;;15.83;100.00
4586;BME280;2305;50.118;8.952;2022-11-15T12:56:15;99819.13;;;16.19;100.00
4586;BME280;2305;50.118;8.952;2022-11-15T12:58:50;99822.16;;;16.46;100.00
4586;BME280;2305;50.118;8.952;2022-11-15T13:01:58;99812.31;;;16.55;100.00
4586;BME280;2305;50.118;8.952;2022-11-15T13:04:29;99805.34;;;16.54;100.00
4586;BME280;2305;50.118;8.952;2022-11-15T13:07:02;99799.22;;;16.45;100.00
4586;BME280;2305;50.118;8.952;2022-11-15T13:09:54;99802.47;;;16.25;100.00
4586;BME280;2305;50.118;8.952;2022-11-15T13:12:52;99796.25;;;16.02;100.00
4586;BME280;2305;50.118;8.952;2022-11-15T13:15:35;99793.13;;;15.90;100.00
4586;BME280;2305;50.118;8.952;2022-11-15T13:18:38;99788.31;;;15.94;100.00
4586;BME280;2305;50.118;8.952;2022-11-15T13:21:22;99790.44;;;16.06;100.00
4586;BME280;2305;50.118;8.952;2022-11-15T13:24:13;99778.13;;;16.13;100.00
4586;BME280;2305;50.118;8.952;2022-11-15T13:26:42;99784.41;;;16.12;100.00
4586;BME280;2305;50.118;8.952;2022-11-15T13:29:18;99785.28;;;16.05;100.00
4586;BME280;2305;50.118;8.952;2022-11-15T13:31:46;99778.44;;;16.10;100.00
4586;BME280;2305;50.118;8.952;2022-11-15T13:34:24;99783.03;;;16.24;100.00
4586;BME280;2305;50.118;8.952;2022-11-15T13:37:28;99777.84;;;16.39;100.00
4586;BME280;2305;50.118;8.952;2022-11-15T13:40:15;99779.06;;;16.51;100.00
4586;BME280;2305;50.118;8.952;2022-11-15T13:42:46;99763.72;;;16.61;100.00
4586;BME280;2305;50.118;8.952;2022-11-15T13:45:16;99763.09;;;16.59;100.00
4586;BME280;2305;50.118;8.952;2022-11-15T13:47:51;99766.38;;;16.38;100.00
4586;BME280;2305;50.118;8.952;2022-11-15T13:50:25;99759.25;;;16.23;100.00
4586;BME280;2305;50.118;8.952;2022-11-15T13:52:58;99773.28;;;16.17;100.00
4586;BME280;2305;50.118;8.952;2022-11-15T13:55:27;99754.72;;;16.01;100.00
4586;BME280;2305;50.118;8.952;2022-11-15T13:58:01;99751.63;;;15.89;100.00
4586;BME280;2305;50.118;8.952;2022-11-15T14:00:36;99750.13;;;15.87;100.00
4586;BME280;2305;50.118;8.952;2022-11-15T14:03:16;99741.69;;;15.91;100.00
4586;BME280;2305;50.118;8.952;2022-11-15T14:06:10;99740.00;;;15.90;100.00
4586;BME280;2305;50.118;8.952;2022-11-15T14:08:41;99737.38;;;15.82;100.00
4586;BME280;2305;50.118;8.952;2022-11-15T14:11:15;99722.84;;;15.70;100.00
4586;BME280;2305;50.118;8.952;2022-11-15T14:14:11;99730.28;;;15.75;100.00
4586;BME280;2305;50.118;8.952;2022-11-15T14:16:42;99719.19;;;15.71;100.00
4586;BME280;2305;50.118;8.952;2022-11-15T14:19:12;99719.00;;;15.65;100.00
4586;BME280;2305;50.118;8.952;2022-11-15T14:22:12;99718.03;;;15.58;100.00
4586;BME280;2305;50.118;8.952;2022-11-15T14:24:43;99714.09;;;15.54;100.00
4586;BME280;2305;50.118;8.952;2022-11-15T14:27:21;99706.66;;;15.49;100.00
4586;BME280;2305;50.118;8.952;2022-11-15T14:29:52;99704.81;;;15.42;100.00
4586;BME280;2305;50.118;8.952;2022-11-15T14:32:21;99710.28;;;15.40;100.00
4586;BME280;2305;50.118;8.952;2022-11-15T14:34:54;99698.19;;;15.30;100.00
4586;BME280;2305;50.118;8.952;2022-11-15T14:37:26;99706.16;;;15.30;100.00
4586;BME280;2305;50.118;8.952;2022-11-15T14:39:56;99695.72;;;15.28;100.00
4586;BME280;2305;50.118;8.952;2022-11-15T14:42:25;99696.88;;;15.26;100.00
4586;BME280;2305;50.118;8.952;2022-11-15T14:44:55;99696.03;;;15.25;100.00
4586;BME280;2305;50.118;8.952;2022-11-15T14:47:23;99691.56;;;15.26;100.00